Black, Alabama
Current Conditions -  °F | °C
As of 4:58 PM on Monday 20 Oct 2014 (Local Time) from KOZR Reporting Station
Clear Clear  
Wind Chill: 75°   Ceiling: Unl
Heat Index: 75°   Visibility: 10mi
Dew Point: 54°   Wind: 6mph
Humidity: 47%   Direction: 280°W
Pressure: 29.97"   Gusts: NA
Location:  31.01°N, 85.74°W
Report Text: KOZR 202158Z AUTO 28005KT 10SM CLR 24/12 A2997 RMK AO2 SLP150 T02380120
Loading
Personal Weather Stations






























Interactive Weather Map
Tropical Storm Tracking
New forecast layout! Learn more

10-Day Weather Forecast

Advertisements
Track Severe Weather on mobile